Time;durP1;ratioP1;P1;durP2;ratioP2;P2;SDS_P1;SDS_P2;PMS_P1;PMS_P2;Temp;Humidity;BMP_temperature;BMP_pressure;BME280_temperature;BME280_humidity;BME280_pressure;Samples;Min_cycle;Max_cycle;Signal;HPM_P1;HPM_P2
2023/04/14 02:02:05;;;;;;;42.30;18.83;;;;;;;;;;4431130;28;20038;-73
2023/04/14 02:04:33;;;;;;;44.33;18.83;;;;;;;;;;4266797;33;20072;-74
2023/04/14 02:07:01;;;;;;;37.72;16.80;;;;;;;;;;4245888;33;20050;-75
2023/04/14 02:09:28;;;;;;;40.25;15.70;;;;;;;;;;4249477;33;20054;-74
2023/04/14 02:11:54;;;;;;;32.03;16.37;;;;;;;;;;4249960;33;20445;-74
2023/04/14 02:14:21;;;;;;;35.88;16.70;;;;;;;;;;4238604;33;20100;-74
2023/04/14 02:16:48;;;;;;;34.45;15.88;;;;;;;;;;4250112;33;20085;-74
2023/04/14 02:19:18;;;;;;;31.52;15.48;;;;;;;;;;4248766;33;20058;-75
2023/04/14 02:21:45;;;;;;;30.83;15.05;;;;;;;;;;4252322;33;20795;-74
2023/04/14 02:24:11;;;;;;;31.02;16.30;;;;;;;;;;4252922;33;20046;-74
2023/04/14 02:26:40;;;;;;;29.00;14.68;;;;;;;;;;4252670;33;20445;-74
2023/04/14 02:29:11;;;;;;;26.90;15.10;;;;;;;;;;4252069;33;20050;-74
2023/04/14 02:31:51;;;;;;;30.17;14.75;;;;;;;;;;4243824;33;20042;-74
2023/04/14 02:34:22;;;;;;;32.00;15.40;;;;;;;;;;4236930;33;20547;-75
2023/04/14 02:36:52;;;;;;;26.37;13.13;;;;;;;;;;4237408;33;20171;-74
2023/04/14 02:39:21;;;;;;;31.55;14.35;;;;;;;;;;4236557;33;20062;-76
2023/04/14 02:41:52;;;;;;;25.48;14.15;;;;;;;;;;4237032;33;20172;-74
2023/04/14 02:44:24;;;;;;;33.28;14.63;;;;;;;;;;4224551;33;20106;-73
2023/04/14 02:46:56;;;;;;;26.83;13.90;;;;;;;;;;4231246;33;20050;-74
2023/04/14 02:49:23;;;;;;;28.77;14.43;;;;;;;;;;4211486;34;20039;-75
2023/04/14 02:51:50;;;;;;;25.37;12.65;;;;;;;;;;4214203;34;20556;-74
2023/04/14 02:54:24;;;;;;;26.75;12.75;;;;;;;;;;4212880;34;20080;-74
2023/04/14 02:56:50;;;;;;;23.50;11.32;;;;;;;;;;4223925;34;20086;-73
2023/04/14 02:59:20;;;;;;;22.95;11.88;;;;;;;;;;4220839;34;20095;-73
2023/04/14 03:01:48;;;;;;;28.60;13.38;;;;;;;;;;4222182;34;20050;-75
2023/04/14 03:04:16;;;;;;;20.55;11.27;;;;;;;;;;4210173;34;20071;-74
2023/04/14 03:06:43;;;;;;;35.53;13.93;;;;;;;;;;4210177;34;20778;-74
2023/04/14 03:09:10;;;;;;;24.92;12.95;;;;;;;;;;4195627;34;20055;-75
2023/04/14 03:11:37;;;;;;;28.75;11.30;;;;;;;;;;4194209;34;20063;-73
2023/04/14 03:14:04;;;;;;;27.92;12.40;;;;;;;;;;4195152;34;20055;-73
2023/04/14 03:16:30;;;;;;;25.83;12.65;;;;;;;;;;4209455;34;20083;-73
2023/04/14 03:18:58;;;;;;;20.92;11.30;;;;;;;;;;4209612;34;20085;-73
2023/04/14 03:21:25;;;;;;;21.95;11.65;;;;;;;;;;4219974;33;20038;-75
2023/04/14 03:23:54;;;;;;;25.73;11.80;;;;;;;;;;4237384;33;20050;-73
2023/04/14 03:26:22;;;;;;;24.92;11.68;;;;;;;;;;4237795;33;20062;-74
2023/04/14 03:28:49;;;;;;;20.77;11.10;;;;;;;;;;4237878;33;20186;-73
2023/04/14 03:31:17;;;;;;;25.37;11.50;;;;;;;;;;4235543;33;20056;-73
2023/04/14 03:33:45;;;;;;;21.77;11.55;;;;;;;;;;4235010;33;20050;-74
2023/04/14 03:36:13;;;;;;;31.30;11.65;;;;;;;;;;4237441;33;20054;-73
2023/04/14 03:38:41;;;;;;;18.23;10.68;;;;;;;;;;4237526;33;20475;-73
2023/04/14 03:41:16;;;;;;;22.52;10.68;;;;;;;;;;4236608;33;20176;-73
2023/04/14 03:43:44;;;;;;;20.00;10.55;;;;;;;;;;4233751;33;20063;-74
2023/04/14 03:46:12;;;;;;;28.98;12.73;;;;;;;;;;4237031;33;20046;-73
2023/04/14 03:48:43;;;;;;;23.27;12.45;;;;;;;;;;4236571;33;20058;-73
2023/04/14 03:51:12;;;;;;;31.80;11.73;;;;;;;;;;4221405;33;20315;-73
2023/04/14 03:53:40;;;;;;;21.15;10.82;;;;;;;;;;4214442;34;20113;-72
2023/04/14 03:56:07;;;;;;;34.08;11.60;;;;;;;;;;4212658;34;20035;-73
2023/04/14 03:58:33;;;;;;;29.33;13.05;;;;;;;;;;4208992;34;20048;-73
2023/04/14 04:01:00;;;;;;;26.85;11.50;;;;;;;;;;4209371;34;20059;-74
2023/04/14 04:03:27;;;;;;;20.20;10.77;;;;;;;;;;4207555;34;20084;-75
2023/04/14 04:05:54;;;;;;;18.15;10.52;;;;;;;;;;4223077;33;20106;-73
2023/04/14 04:08:21;;;;;;;18.15;9.80;;;;;;;;;;4222137;33;20051;-73
2023/04/14 04:10:48;;;;;;;23.35;10.77;;;;;;;;;;4222649;33;20080;-74
2023/04/14 04:13:16;;;;;;;22.13;10.50;;;;;;;;;;4222231;33;20046;-74
2023/04/14 04:15:44;;;;;;;22.70;10.73;;;;;;;;;;4224644;33;20483;-74
2023/04/14 04:18:14;;;;;;;19.98;10.05;;;;;;;;;;4226568;33;20228;-74
2023/04/14 04:20:40;;;;;;;19.48;10.23;;;;;;;;;;4211927;34;20043;-74
2023/04/14 04:23:07;;;;;;;21.30;10.43;;;;;;;;;;4224167;33;20058;-74
2023/04/14 04:25:35;;;;;;;19.70;11.02;;;;;;;;;;4208990;34;20438;-75
2023/04/14 04:28:02;;;;;;;19.27;10.88;;;;;;;;;;4219286;33;20073;-74
2023/04/14 04:30:29;;;;;;;17.52;10.32;;;;;;;;;;4194276;34;20047;-73
2023/04/14 04:32:56;;;;;;;32.88;11.52;;;;;;;;;;4195767;34;20059;-73
2023/04/14 04:35:23;;;;;;;22.77;10.93;;;;;;;;;;4195275;34;20619;-73
2023/04/14 04:37:50;;;;;;;16.37;10.13;;;;;;;;;;4192997;34;20043;-73
2023/04/14 04:40:17;;;;;;;18.37;10.60;;;;;;;;;;4192679;34;20047;-75
2023/04/14 04:42:44;;;;;;;20.35;10.27;;;;;;;;;;4189362;34;20470;-74
2023/04/14 04:45:11;;;;;;;17.00;10.15;;;;;;;;;;4178153;34;20032;-74
2023/04/14 04:47:37;;;;;;;18.10;10.32;;;;;;;;;;4179920;34;20073;-73
2023/04/14 04:50:04;;;;;;;17.75;11.20;;;;;;;;;;4178533;34;20414;-76
2023/04/14 04:52:31;;;;;;;22.70;10.45;;;;;;;;;;4175698;34;20063;-74
2023/04/14 04:54:57;;;;;;;21.10;11.12;;;;;;;;;;4180718;34;20965;-73
2023/04/14 04:57:23;;;;;;;21.40;11.60;;;;;;;;;;4195537;34;20059;-73
2023/04/14 04:59:49;;;;;;;17.98;9.73;;;;;;;;;;4198850;34;20066;-74
2023/04/14 05:02:15;;;;;;;18.80;10.75;;;;;;;;;;4197291;34;20468;-74
2023/04/14 05:04:42;;;;;;;17.58;10.55;;;;;;;;;;4183610;34;20043;-74
2023/04/14 05:07:08;;;;;;;19.20;10.15;;;;;;;;;;4182730;34;20087;-75
2023/04/14 05:09:34;;;;;;;16.77;9.50;;;;;;;;;;4194108;34;20052;-71
2023/04/14 05:12:01;;;;;;;18.30;9.75;;;;;;;;;;4199390;34;20114;-73
2023/04/14 05:14:27;;;;;;;16.37;10.30;;;;;;;;;;4198091;34;20547;-75
2023/04/14 05:16:53;;;;;;;15.80;10.15;;;;;;;;;;4200005;34;20059;-71
2023/04/14 05:19:19;;;;;;;23.38;10.65;;;;;;;;;;4199197;34;20229;-71
2023/04/14 05:21:45;;;;;;;19.75;9.82;;;;;;;;;;4208062;34;20501;-72
2023/04/14 05:24:12;;;;;;;23.98;10.23;;;;;;;;;;4206549;34;20381;-70
2023/04/14 05:26:38;;;;;;;18.67;10.10;;;;;;;;;;4205313;34;20563;-74
2023/04/14 05:29:04;;;;;;;16.85;9.75;;;;;;;;;;4214871;34;20159;-70
2023/04/14 05:31:30;;;;;;;23.02;10.60;;;;;;;;;;4225118;33;20823;-72
2023/04/14 05:33:56;;;;;;;18.70;9.77;;;;;;;;;;4229527;33;20773;-71
2023/04/14 05:36:22;;;;;;;31.27;11.95;;;;;;;;;;4271805;33;20085;-71
2023/04/14 05:38:49;;;;;;;17.40;9.38;;;;;;;;;;4280646;33;20045;-70
2023/04/14 05:41:15;;;;;;;24.30;11.12;;;;;;;;;;4282577;33;20098;-72
2023/04/14 05:43:41;;;;;;;22.92;10.57;;;;;;;;;;4271378;33;20193;-72
2023/04/14 05:46:08;;;;;;;17.40;10.23;;;;;;;;;;4278062;33;20079;-71
2023/04/14 05:48:36;;;;;;;22.65;10.73;;;;;;;;;;4269061;33;20037;-71
2023/04/14 05:51:02;;;;;;;18.60;9.15;;;;;;;;;;4274633;33;20449;-71
2023/04/14 05:53:28;;;;;;;16.80;8.85;;;;;;;;;;4282844;33;20400;-71
2023/04/14 05:55:56;;;;;;;17.98;10.00;;;;;;;;;;4270811;33;20080;-70
2023/04/14 05:58:22;;;;;;;18.17;10.23;;;;;;;;;;4289736;33;20049;-71
2023/04/14 06:00:48;;;;;;;23.00;10.68;;;;;;;;;;4287761;33;20053;-71
2023/04/14 06:03:15;;;;;;;17.67;9.23;;;;;;;;;;4275110;33;20074;-72
2023/04/14 06:05:41;;;;;;;16.27;8.80;;;;;;;;;;4271514;33;20702;-71
2023/04/14 06:08:07;;;;;;;22.55;9.90;;;;;;;;;;4254271;33;20066;-70
2023/04/14 06:10:34;;;;;;;17.58;9.85;;;;;;;;;;4251793;33;20071;-71
2023/04/14 06:13:00;;;;;;;14.70;8.85;;;;;;;;;;4251849;33;20103;-72
2023/04/14 06:15:28;;;;;;;18.08;8.70;;;;;;;;;;4251673;33;20059;-70
2023/04/14 06:17:54;;;;;;;18.52;8.73;;;;;;;;;;4249669;33;20441;-71
2023/04/14 06:20:21;;;;;;;22.58;10.35;;;;;;;;;;4250417;33;20079;-72
2023/04/14 06:22:47;;;;;;;14.95;8.77;;;;;;;;;;4250433;33;20433;-70
2023/04/14 06:25:13;;;;;;;14.55;9.07;;;;;;;;;;4250546;33;20439;-71
2023/04/14 06:27:39;;;;;;;20.95;9.30;;;;;;;;;;4249285;33;20046;-71
2023/04/14 06:30:06;;;;;;;16.90;8.35;;;;;;;;;;4250698;33;21027;-71
2023/04/14 06:32:33;;;;;;;14.35;8.27;;;;;;;;;;4249658;33;20384;-71
2023/04/14 06:34:59;;;;;;;29.58;8.13;;;;;;;;;;4250930;33;20084;-72
2023/04/14 06:37:25;;;;;;;12.18;8.73;;;;;;;;;;4249726;33;20076;-72
2023/04/14 06:39:52;;;;;;;10.40;7.32;;;;;;;;;;4252296;33;20066;-78
2023/04/14 06:42:18;;;;;;;13.13;8.68;;;;;;;;;;4267475;33;20076;-71
2023/04/14 06:44:44;;;;;;;13.77;8.68;;;;;;;;;;4267221;33;20054;-72
2023/04/14 06:47:10;;;;;;;19.77;8.48;;;;;;;;;;4268373;33;20100;-72
2023/04/14 06:49:37;;;;;;;16.05;8.60;;;;;;;;;;4266887;33;20381;-73
2023/04/14 06:52:03;;;;;;;14.80;7.93;;;;;;;;;;4268276;33;20079;-82
2023/04/14 06:54:33;;;;;;;17.05;7.93;;;;;;;;;;4266427;33;20112;-74
2023/04/14 06:57:00;;;;;;;13.88;7.75;;;;;;;;;;4235690;33;20142;-72
2023/04/14 06:59:28;;;;;;;15.38;7.30;;;;;;;;;;4235917;33;20060;-71
2023/04/14 07:01:54;;;;;;;14.85;7.90;;;;;;;;;;4235642;33;20444;-72
2023/04/14 07:04:21;;;;;;;14.10;6.65;;;;;;;;;;4249980;33;20089;-75
2023/04/14 07:06:47;;;;;;;17.35;7.22;;;;;;;;;;4250612;33;20083;-76
2023/04/14 07:09:13;;;;;;;15.95;7.57;;;;;;;;;;4250596;33;20075;-73
2023/04/14 07:11:40;;;;;;;17.65;6.82;;;;;;;;;;4251915;33;20080;-73
2023/04/14 07:14:06;;;;;;;13.05;6.65;;;;;;;;;;4249744;33;20050;-72
2023/04/14 07:16:32;;;;;;;15.25;8.25;;;;;;;;;;4249508;33;20151;-80
2023/04/14 07:18:59;;;;;;;14.68;7.25;;;;;;;;;;4249495;33;20080;-78
2023/04/14 07:21:25;;;;;;;14.40;7.53;;;;;;;;;;4249793;33;20042;-73
2023/04/14 07:23:51;;;;;;;15.02;7.85;;;;;;;;;;4249753;33;20092;-73
2023/04/14 07:26:17;;;;;;;13.98;7.53;;;;;;;;;;4244205;33;20180;-74
2023/04/14 07:28:43;;;;;;;15.70;8.32;;;;;;;;;;4248667;33;20053;-77
2023/04/14 07:31:09;;;;;;;14.98;6.93;;;;;;;;;;4260557;33;20046;-76
2023/04/14 07:33:36;;;;;;;15.18;6.90;;;;;;;;;;4260647;33;20069;-74
2023/04/14 07:36:03;;;;;;;13.00;6.15;;;;;;;;;;4259339;33;20046;-73
2023/04/14 07:38:31;;;;;;;9.93;5.55;;;;;;;;;;4250155;33;20107;-71
2023/04/14 07:40:57;;;;;;;12.25;6.07;;;;;;;;;;4253359;33;20129;-79
2023/04/14 07:43:23;;;;;;;11.82;6.85;;;;;;;;;;4253120;33;20061;-70
2023/04/14 07:45:51;;;;;;;8.55;6.20;;;;;;;;;;4253395;33;20062;-74
2023/04/14 07:48:20;;;;;;;11.15;5.95;;;;;;;;;;4260002;33;20061;-74
2023/04/14 07:50:47;;;;;;;8.50;5.93;;;;;;;;;;4261700;33;20570;-74
2023/04/14 07:53:13;;;;;;;7.95;5.28;;;;;;;;;;4218560;34;20058;-75
2023/04/14 07:55:39;;;;;;;13.38;7.62;;;;;;;;;;4217234;34;20470;-73
2023/04/14 07:58:06;;;;;;;11.23;5.85;;;;;;;;;;4198974;34;20067;-76
2023/04/14 08:00:32;;;;;;;9.75;5.47;;;;;;;;;;4199368;34;20235;-75
2023/04/14 08:02:59;;;;;;;8.77;5.65;;;;;;;;;;4195748;34;20059;-72
2023/04/14 08:05:26;;;;;;;7.18;4.47;;;;;;;;;;4199531;34;20074;-72
2023/04/14 08:07:52;;;;;;;10.50;5.25;;;;;;;;;;4201539;34;20077;-74
2023/04/14 08:10:20;;;;;;;9.93;5.72;;;;;;;;;;4211775;34;20401;-72
2023/04/14 08:12:46;;;;;;;9.73;5.28;;;;;;;;;;4215451;34;21567;-75
2023/04/14 08:15:12;;;;;;;10.57;5.70;;;;;;;;;;4218136;34;20059;-74
2023/04/14 08:17:38;;;;;;;9.18;5.28;;;;;;;;;;4221739;33;20095;-73
2023/04/14 08:20:05;;;;;;;9.82;5.70;;;;;;;;;;4222512;34;20066;-73
2023/04/14 08:22:31;;;;;;;8.15;5.40;;;;;;;;;;4221052;34;20059;-75
2023/04/14 08:24:58;;;;;;;9.35;5.15;;;;;;;;;;4221458;34;20050;-74
2023/04/14 08:27:24;;;;;;;14.13;5.87;;;;;;;;;;4220724;34;21027;-71
2023/04/14 08:29:50;;;;;;;7.62;4.65;;;;;;;;;;4227524;33;20082;-73
2023/04/14 08:32:17;;;;;;;11.18;6.03;;;;;;;;;;4264466;33;20046;-73
2023/04/14 08:34:43;;;;;;;6.37;4.45;;;;;;;;;;4264326;33;20101;-77
2023/04/14 08:37:09;;;;;;;9.15;4.50;;;;;;;;;;4265691;33;20041;-73
2023/04/14 08:39:35;;;;;;;12.88;5.07;;;;;;;;;;4266623;33;20046;-73
2023/04/14 08:42:02;;;;;;;12.07;5.37;;;;;;;;;;4264592;33;20076;-75
2023/04/14 08:44:28;;;;;;;6.05;4.70;;;;;;;;;;4263002;33;20042;-72
2023/04/14 08:46:55;;;;;;;7.93;4.72;;;;;;;;;;4262233;33;20049;-77
2023/04/14 08:49:34;;;;;;;5.25;4.75;;;;;;;;;;4259756;33;20054;-70
2023/04/14 08:52:02;;;;;;;7.57;5.57;;;;;;;;;;4262072;33;20065;-71
2023/04/14 08:54:28;;;;;;;12.15;5.35;;;;;;;;;;4233112;33;20034;-80
2023/04/14 08:56:56;;;;;;;6.97;5.20;;;;;;;;;;4226164;33;20084;-72
2023/04/14 08:59:22;;;;;;;7.35;4.70;;;;;;;;;;4230799;33;20051;-75
2023/04/14 09:01:51;;;;;;;7.07;4.65;;;;;;;;;;4226953;33;20186;-71
2023/04/14 09:04:19;;;;;;;6.22;4.65;;;;;;;;;;4223096;34;20027;-72
2023/04/14 09:06:45;;;;;;;8.77;4.32;;;;;;;;;;4220842;34;20050;-75
2023/04/14 09:09:11;;;;;;;7.72;4.47;;;;;;;;;;4227359;33;20054;-73
2023/04/14 09:11:39;;;;;;;7.20;4.72;;;;;;;;;;4230267;33;20055;-72
2023/04/14 09:14:06;;;;;;;9.23;5.30;;;;;;;;;;4232886;33;20137;-73
2023/04/14 09:16:32;;;;;;;8.93;5.40;;;;;;;;;;4236511;33;20042;-71
2023/04/14 09:19:04;;;;;;;;;;;;;;;;;;4235890;33;20060;-73
2023/04/14 09:21:31;;;;;;;6.40;4.62;;;;;;;;;;4229030;33;19985;-74
2023/04/14 09:23:56;;;;;;;9.95;4.90;;;;;;;;;;4228554;33;20047;-75
2023/04/14 09:26:24;;;;;;;10.88;5.65;;;;;;;;;;4262107;33;20073;-74
2023/04/14 09:28:51;;;;;;;11.77;5.32;;;;;;;;;;4251294;33;20085;-73
2023/04/14 09:31:18;;;;;;;5.20;4.22;;;;;;;;;;4247586;33;20091;-73
2023/04/14 09:33:47;;;;;;;8.00;4.28;;;;;;;;;;4249963;33;20034;-72
2023/04/14 09:36:21;;;;;;;5.18;4.65;;;;;;;;;;4250228;33;20049;-73
2023/04/14 09:38:48;;;;;;;4.55;3.75;;;;;;;;;;4247083;33;20042;-74
2023/04/14 09:41:18;;;;;;;6.15;3.83;;;;;;;;;;4249013;33;20467;-74
2023/04/14 09:43:44;;;;;;;10.10;4.72;;;;;;;;;;4234040;33;20031;-72
2023/04/14 09:46:11;;;;;;;7.93;4.37;;;;;;;;;;4234881;33;20121;-75
2023/04/14 09:48:50;;;;;;;5.85;4.45;;;;;;;;;;4231610;33;20407;-81
2023/04/14 09:51:20;;;;;;;7.62;3.80;;;;;;;;;;4234134;33;20046;-73
2023/04/14 09:53:48;;;;;;;7.22;4.72;;;;;;;;;;4234229;33;20054;-74
2023/04/14 09:56:16;;;;;;;4.12;3.67;;;;;;;;;;4234481;33;20062;-76
2023/04/14 09:58:43;;;;;;;7.22;4.35;;;;;;;;;;4233065;33;20072;-80
2023/04/14 10:01:11;;;;;;;7.00;3.47;;;;;;;;;;4234298;33;20373;-73
2023/04/14 10:03:37;;;;;;;5.72;4.47;;;;;;;;;;4236383;33;20065;-73
2023/04/14 10:06:25;;;;;;;7.68;3.83;;;;;;;;;;4235847;33;20438;-73
2023/04/14 10:08:52;;;;;;;4.53;3.53;;;;;;;;;;4234516;33;20488;-73
2023/04/14 10:11:21;;;;;;;9.15;3.42;;;;;;;;;;4236254;33;20325;-73
2023/04/14 10:13:57;;;;;;;9.75;4.43;;;;;;;;;;4235886;33;20746;-72
2023/04/14 10:16:24;;;;;;;7.37;4.70;;;;;;;;;;4235590;33;20825;-74
2023/04/14 10:18:51;;;;;;;7.95;3.60;;;;;;;;;;4236339;33;20037;-75
2023/04/14 10:21:20;;;;;;;3.85;3.42;;;;;;;;;;4258685;33;20213;-73
2023/04/14 10:23:46;;;;;;;8.75;3.45;;;;;;;;;;4267998;33;20042;-71
2023/04/14 10:26:19;;;;;;;4.65;3.78;;;;;;;;;;4257056;33;20058;-80
2023/04/14 10:28:46;;;;;;;7.37;3.62;;;;;;;;;;4253619;33;20037;-72
2023/04/14 10:31:16;;;;;;;3.90;3.47;;;;;;;;;;4255723;33;20063;-72
2023/04/14 10:33:42;;;;;;;4.62;3.08;;;;;;;;;;4256213;33;20193;-74
2023/04/14 10:36:08;;;;;;;3.50;2.58;;;;;;;;;;4256297;33;20388;-73
2023/04/14 10:38:42;;;;;;;5.95;3.42;;;;;;;;;;4253287;33;20045;-75
2023/04/14 10:41:09;;;;;;;11.07;3.45;;;;;;;;;;4255562;33;20441;-73
2023/04/14 10:43:36;;;;;;;4.85;2.92;;;;;;;;;;4249015;33;20054;-74
2023/04/14 10:46:03;;;;;;;4.95;3.72;;;;;;;;;;4235978;33;20393;-73
2023/04/14 10:48:40;;;;;;;6.37;4.53;;;;;;;;;;4234687;33;20034;-81
2023/04/14 10:51:08;;;;;;;8.50;3.90;;;;;;;;;;4235872;33;20422;-73
2023/04/14 10:53:45;;;;;;;8.98;4.10;;;;;;;;;;4237046;33;20043;-74
2023/04/14 10:56:12;;;;;;;7.30;3.95;;;;;;;;;;4230141;33;20104;-75
2023/04/14 10:58:53;;;;;;;5.10;4.10;;;;;;;;;;4229712;33;20146;-73
2023/04/14 11:01:21;;;;;;;5.78;4.00;;;;;;;;;;4389000;28;20099;-72
2023/04/14 11:03:47;;;;;;;4.50;3.65;;;;;;;;;;4201388;34;20077;-73
2023/04/14 11:06:33;;;;;;;8.80;4.68;;;;;;;;;;4202599;34;20052;-74
2023/04/14 11:08:59;;;;;;;6.12;4.95;;;;;;;;;;4199456;34;20055;-72
2023/04/14 11:11:26;;;;;;;8.80;4.30;;;;;;;;;;4201732;34;20220;-73
2023/04/14 11:14:11;;;;;;;12.50;5.10;;;;;;;;;;4202457;34;20031;-75
2023/04/14 11:16:37;;;;;;;11.23;4.43;;;;;;;;;;4199043;34;20055;-80
2023/04/14 11:19:12;;;;;;;9.43;5.75;;;;;;;;;;4201679;34;20181;-73
2023/04/14 11:21:48;;;;;;;7.62;5.07;;;;;;;;;;4197210;34;20060;-73
2023/04/14 11:24:14;;;;;;;10.75;5.00;;;;;;;;;;4194505;34;20058;-75
2023/04/14 11:26:43;;;;;;;6.78;4.65;;;;;;;;;;4200009;33;20074;-75
2023/04/14 11:29:09;;;;;;;8.05;5.18;;;;;;;;;;4221508;33;20842;-73
2023/04/14 11:31:35;;;;;;;26.17;18.35;;;;;;;;;;4220800;33;20476;-73
2023/04/14 11:34:05;;;;;;;10.77;7.85;;;;;;;;;;4222577;34;20116;-73
2023/04/14 11:36:35;;;;;;;14.15;9.18;;;;;;;;;;4221657;34;20556;-74
2023/04/14 11:39:02;;;;;;;8.10;5.30;;;;;;;;;;4222211;33;20332;-72
2023/04/14 11:41:29;;;;;;;7.30;5.35;;;;;;;;;;4222464;33;20059;-73
2023/04/14 11:43:55;;;;;;;9.40;5.12;;;;;;;;;;4217435;34;20056;-72
2023/04/14 11:46:21;;;;;;;6.78;5.68;;;;;;;;;;4222096;34;20517;-72
2023/04/14 11:48:52;;;;;;;6.53;5.18;;;;;;;;;;4220699;33;20098;-73
2023/04/14 11:51:18;;;;;;;8.38;4.65;;;;;;;;;;4217211;33;20051;-75
2023/04/14 11:53:44;;;;;;;12.13;6.30;;;;;;;;;;4221447;33;20074;-72
2023/04/14 11:56:11;;;;;;;17.20;5.57;;;;;;;;;;4233910;33;20076;-73
2023/04/14 11:58:37;;;;;;;8.70;5.32;;;;;;;;;;4230722;33;20056;-80
2023/04/14 12:01:04;;;;;;;11.32;5.28;;;;;;;;;;4237115;33;20116;-73
2023/04/14 12:03:33;;;;;;;11.43;5.20;;;;;;;;;;4250121;33;20084;-73
2023/04/14 12:06:00;;;;;;;12.43;5.10;;;;;;;;;;4249227;33;20461;-74
2023/04/14 12:08:30;;;;;;;7.40;4.82;;;;;;;;;;4249289;33;20058;-78
2023/04/14 12:11:12;;;;;;;7.15;4.40;;;;;;;;;;4246940;33;20392;-73
2023/04/14 12:13:39;;;;;;;6.15;5.12;;;;;;;;;;4248833;33;20123;-75
2023/04/14 12:16:05;;;;;;;8.57;5.10;;;;;;;;;;4218949;34;20058;-73
2023/04/14 12:18:32;;;;;;;14.32;4.80;;;;;;;;;;4220265;34;20514;-76
2023/04/14 12:21:02;;;;;;;7.97;4.18;;;;;;;;;;4219963;34;20084;-73
2023/04/14 12:23:28;;;;;;;8.57;3.60;;;;;;;;;;4193465;34;20065;-73
2023/04/14 12:25:54;;;;;;;8.75;4.15;;;;;;;;;;4193581;34;20433;-74
2023/04/14 12:28:28;;;;;;;7.18;4.40;;;;;;;;;;4206065;34;20090;-73
2023/04/14 12:31:00;;;;;;;7.30;4.05;;;;;;;;;;4205662;34;20051;-74
2023/04/14 12:33:29;;;;;;;6.25;3.80;;;;;;;;;;4207086;34;20059;-74
2023/04/14 12:36:03;;;;;;;6.55;4.05;;;;;;;;;;4206200;34;20073;-74
2023/04/14 12:38:29;;;;;;;7.00;4.47;;;;;;;;;;4206816;34;20040;-73
2023/04/14 12:41:04;;;;;;;8.50;3.83;;;;;;;;;;4207165;34;20311;-74
2023/04/14 12:43:33;;;;;;;4.47;4.05;;;;;;;;;;4205553;34;20038;-73
2023/04/14 12:46:02;;;;;;;4.03;3.62;;;;;;;;;;4204976;33;20049;-73
2023/04/14 12:48:38;;;;;;;14.38;3.87;;;;;;;;;;4235179;33;20191;-73
2023/04/14 12:51:15;;;;;;;10.90;4.82;;;;;;;;;;4233865;33;20080;-71
2023/04/14 12:53:42;;;;;;;7.18;4.47;;;;;;;;;;4232843;33;20643;-71
2023/04/14 12:56:09;;;;;;;6.28;5.07;;;;;;;;;;4235407;33;20059;-73
2023/04/14 12:58:36;;;;;;;7.45;4.93;;;;;;;;;;4233686;33;20065;-80
2023/04/14 13:01:04;;;;;;;6.45;4.78;;;;;;;;;;4232070;33;20218;-72
2023/04/14 13:03:56;;;;;;;8.10;4.55;;;;;;;;;;4235264;33;20071;-73
2023/04/14 13:06:30;;;;;;;7.80;4.30;;;;;;;;;;4233888;33;20070;-74
2023/04/14 13:08:57;;;;;;;5.18;4.28;;;;;;;;;;4234807;33;21147;-72
2023/04/14 13:11:23;;;;;;;8.75;4.93;;;;;;;;;;4229065;33;20420;-71
2023/04/14 13:13:51;;;;;;;7.95;5.43;;;;;;;;;;4228059;33;20195;-72
2023/04/14 13:16:17;;;;;;;10.25;5.12;;;;;;;;;;4226139;33;20086;-72
2023/04/14 13:18:44;;;;;;;8.73;5.12;;;;;;;;;;4231213;33;20471;-73
2023/04/14 13:21:10;;;;;;;6.28;4.10;;;;;;;;;;4234609;33;20574;-74
2023/04/14 13:23:36;;;;;;;9.27;5.03;;;;;;;;;;4234192;33;20042;-74
2023/04/14 13:26:02;;;;;;;5.82;4.80;;;;;;;;;;4231021;33;20368;-79
2023/04/14 13:28:28;;;;;;;9.57;5.03;;;;;;;;;;4241978;33;20050;-75
2023/04/14 13:30:55;;;;;;;9.38;5.70;;;;;;;;;;4249283;33;20050;-72
2023/04/14 13:33:22;;;;;;;6.60;4.72;;;;;;;;;;4250433;33;20092;-73
2023/04/14 13:35:49;;;;;;;11.65;7.80;;;;;;;;;;4249688;33;20097;-73
2023/04/14 13:38:15;;;;;;;11.50;7.60;;;;;;;;;;4247702;33;20381;-71
2023/04/14 13:40:41;;;;;;;8.10;4.95;;;;;;;;;;4250295;33;20099;-74
2023/04/14 13:43:07;;;;;;;12.60;6.18;;;;;;;;;;4249751;33;20065;-71
2023/04/14 13:45:34;;;;;;;10.18;5.15;;;;;;;;;;4250319;33;20536;-71
2023/04/14 13:48:00;;;;;;;8.88;5.25;;;;;;;;;;4249791;33;20035;-77
2023/04/14 13:50:27;;;;;;;8.57;5.25;;;;;;;;;;4261320;33;20058;-71
2023/04/14 13:52:53;;;;;;;9.20;4.93;;;;;;;;;;4261397;33;20041;-72
2023/04/14 13:55:19;;;;;;;6.03;5.05;;;;;;;;;;4262744;33;20075;-72
2023/04/14 13:57:45;;;;;;;9.55;5.07;;;;;;;;;;4261645;33;20417;-70
2023/04/14 14:00:12;;;;;;;13.00;6.75;;;;;;;;;;4260660;33;20090;-79
2023/04/14 14:02:39;;;;;;;17.27;5.37;;;;;;;;;;4261617;33;20146;-75
2023/04/14 14:05:09;;;;;;;6.53;4.93;;;;;;;;;;4261252;33;20149;-71
2023/04/14 14:07:35;;;;;;;7.50;4.43;;;;;;;;;;4245142;33;20069;-71
2023/04/14 14:10:02;;;;;;;8.40;5.15;;;;;;;;;;4246566;33;20136;-80
2023/04/14 14:12:28;;;;;;;11.12;5.32;;;;;;;;;;4245219;33;20076;-73
2023/04/14 14:15:01;;;;;;;12.25;5.97;;;;;;;;;;4232907;33;20152;-73
2023/04/14 14:17:27;;;;;;;7.85;5.80;;;;;;;;;;4192414;34;20107;-73
2023/04/14 14:19:54;;;;;;;5.72;5.12;;;;;;;;;;4195817;34;20059;-74
2023/04/14 14:22:20;;;;;;;12.13;5.32;;;;;;;;;;4182062;34;20154;-79
2023/04/14 14:24:46;;;;;;;8.48;5.50;;;;;;;;;;4183913;34;20134;-72
2023/04/14 14:27:12;;;;;;;6.43;5.78;;;;;;;;;;4180620;34;20418;-72
2023/04/14 14:29:38;;;;;;;7.82;5.70;;;;;;;;;;4181772;34;20052;-71
2023/04/14 14:32:04;;;;;;;9.68;4.70;;;;;;;;;;4181484;34;20058;-74
2023/04/14 14:34:30;;;;;;;10.65;5.30;;;;;;;;;;4180805;34;20095;-82
2023/04/14 14:37:04;;;;;;;10.13;6.32;;;;;;;;;;4168597;34;20066;-71
2023/04/14 14:39:31;;;;;;;9.02;5.30;;;;;;;;;;4168879;34;20056;-71
2023/04/14 14:41:57;;;;;;;14.23;5.07;;;;;;;;;;4170116;34;20056;-72
2023/04/14 14:44:23;;;;;;;10.00;5.50;;;;;;;;;;4170003;34;20048;-80
2023/04/14 14:46:51;;;;;;;5.95;4.80;;;;;;;;;;4180488;34;20056;-72
2023/04/14 14:49:18;;;;;;;8.48;4.47;;;;;;;;;;4216577;33;20101;-76
2023/04/14 14:51:44;;;;;;;8.07;4.93;;;;;;;;;;4225161;33;20030;-72
2023/04/14 14:54:11;;;;;;;6.43;4.93;;;;;;;;;;4225407;34;20055;-73
2023/04/14 14:56:37;;;;;;;6.35;4.28;;;;;;;;;;4208596;34;20076;-81
2023/04/14 14:59:09;;;;;;;10.73;4.32;;;;;;;;;;4209024;34;20077;-73
2023/04/14 15:01:36;;;;;;;5.37;4.62;;;;;;;;;;4207034;34;20063;-74
2023/04/14 15:04:03;;;;;;;7.53;4.68;;;;;;;;;;4209584;34;20506;-72
2023/04/14 15:06:29;;;;;;;6.72;4.82;;;;;;;;;;4210410;34;20084;-81
2023/04/14 15:08:56;;;;;;;11.10;4.72;;;;;;;;;;4215779;34;20186;-75
2023/04/14 15:11:23;;;;;;;13.73;4.60;;;;;;;;;;4233452;33;20102;-72
2023/04/14 15:13:49;;;;;;;5.85;4.40;;;;;;;;;;4240767;33;20409;-74
2023/04/14 15:16:15;;;;;;;6.43;5.55;;;;;;;;;;4238728;33;20042;-73
2023/04/14 15:18:41;;;;;;;6.75;4.55;;;;;;;;;;4223090;33;20176;-75
2023/04/14 15:21:07;;;;;;;5.43;3.92;;;;;;;;;;4237651;33;20989;-74
2023/04/14 15:23:38;;;;;;;6.57;4.55;;;;;;;;;;4236645;33;20042;-72
2023/04/14 15:26:04;;;;;;;5.32;4.45;;;;;;;;;;4236932;33;20043;-71
2023/04/14 15:28:30;;;;;;;5.20;3.90;;;;;;;;;;4235685;33;20047;-72
2023/04/14 15:30:56;;;;;;;7.03;3.92;;;;;;;;;;4229433;33;20068;-71
2023/04/14 15:33:22;;;;;;;4.47;4.07;;;;;;;;;;4222923;34;20702;-71
2023/04/14 15:35:49;;;;;;;13.15;4.40;;;;;;;;;;4223096;33;20190;-72
2023/04/14 15:38:15;;;;;;;9.68;4.45;;;;;;;;;;4222734;33;20062;-72
2023/04/14 15:40:41;;;;;;;4.18;3.70;;;;;;;;;;4217979;34;20093;-78
2023/04/14 15:43:09;;;;;;;9.38;3.97;;;;;;;;;;4200200;34;20040;-71
2023/04/14 15:45:35;;;;;;;12.32;4.12;;;;;;;;;;4194104;34;20116;-70
2023/04/14 15:48:01;;;;;;;3.97;3.40;;;;;;;;;;4194905;34;20436;-72
2023/04/14 15:50:34;;;;;;;3.80;3.50;;;;;;;;;;4181651;34;20097;-73
2023/04/14 15:53:01;;;;;;;8.35;3.53;;;;;;;;;;4187430;34;20083;-72
2023/04/14 15:55:27;;;;;;;4.97;3.22;;;;;;;;;;4182157;34;20133;-71
2023/04/14 15:57:53;;;;;;;11.95;4.00;;;;;;;;;;4179147;34;20117;-71
2023/04/14 16:00:21;;;;;;;5.05;3.10;;;;;;;;;;4181123;34;20055;-72
2023/04/14 16:02:47;;;;;;;4.15;2.67;;;;;;;;;;4182128;34;20453;-72
2023/04/14 16:05:13;;;;;;;6.12;3.45;;;;;;;;;;4179731;34;20052;-77
2023/04/14 16:07:40;;;;;;;4.05;3.08;;;;;;;;;;4190678;34;20067;-72
2023/04/14 16:10:07;;;;;;;3.28;2.90;;;;;;;;;;4195804;34;20044;-71
2023/04/14 16:12:34;;;;;;;6.72;2.95;;;;;;;;;;4194191;34;20118;-71
2023/04/14 16:14:59;;;;;;;4.62;3.00;;;;;;;;;;4206519;34;20069;-70
2023/04/14 16:17:26;;;;;;;12.35;3.03;;;;;;;;;;4222461;33;20102;-72
2023/04/14 16:19:52;;;;;;;4.50;3.22;;;;;;;;;;4250729;33;20041;-71
2023/04/14 16:22:18;;;;;;;5.12;2.80;;;;;;;;;;4252249;33;20050;-70
2023/04/14 16:24:45;;;;;;;6.68;3.22;;;;;;;;;;4252977;33;20071;-72
2023/04/14 16:27:11;;;;;;;3.30;2.70;;;;;;;;;;4248703;33;20127;-71
2023/04/14 16:29:37;;;;;;;8.02;3.37;;;;;;;;;;4248673;33;20083;-74
2023/04/14 16:32:04;;;;;;;4.18;2.67;;;;;;;;;;4251493;33;20059;-70
2023/04/14 16:34:30;;;;;;;8.50;3.00;;;;;;;;;;4252381;33;20089;-72
2023/04/14 16:36:57;;;;;;;3.55;2.97;;;;;;;;;;4251792;33;20403;-72